Witter Springs, California
Current Conditions -  °F | °C
As of 12:12 PM on Thursday 18 Dec 2014 (Local Time) from KUKI Reporting Station
Overcast Overcast  
Wind Chill: 54°   Ceiling: 4000
Heat Index: 54°   Visibility: 10mi
Dew Point: 49°   Wind: 6mph
Humidity: 83%   Direction: 140°SE
Pressure: 30.13"   Gusts: NA
Location:  39.18°N, 122.96°W
Report Text: KUKI 182012Z AUTO 14005KT 10SM FEW020 SCT025 OVC040 12/09 A3013 RMK AO2 T01220094
Loading
Personal Weather Stations






























Interactive Weather Map New forecast layout! Learn more

10-Day Weather Forecast

Advertisements
Track Severe Weather on mobile